createdAt,value
2022-08-07T00:00:55.568Z,6.00
2022-08-07T00:03:36.911Z,4.40
2022-08-07T00:06:05.099Z,5.60
2022-08-07T00:08:33.471Z,6.20
2022-08-07T00:11:06.474Z,3.70
2022-08-07T00:13:44.892Z,7.00
2022-08-07T00:16:17.406Z,5.60
2022-08-07T00:18:49.633Z,7.50
2022-08-07T00:21:57.334Z,6.60
2022-08-07T00:24:06.130Z,7.50
2022-08-07T00:26:58.639Z,6.70
2022-08-07T00:29:34.281Z,18.10
2022-08-07T00:32:06.991Z,11.10
2022-08-07T00:34:35.525Z,8.60
2022-08-07T00:37:05.192Z,6.50
2022-08-07T00:39:34.941Z,6.30
2022-08-07T00:42:05.219Z,7.20
2022-08-07T00:44:34.922Z,5.60
2022-08-07T00:47:15.594Z,5.90
2022-08-07T00:50:19.654Z,5.50
2022-08-07T00:52:51.513Z,5.00
2022-08-07T00:55:46.590Z,3.60
2022-08-07T00:58:09.012Z,3.90
2022-08-07T01:00:37.134Z,6.20
2022-08-07T01:03:05.219Z,6.50
2022-08-07T01:05:36.560Z,4.10
2022-08-07T01:08:06.214Z,3.70
2022-08-07T01:10:39.385Z,4.10
2022-08-07T01:13:16.367Z,7.10
2022-08-07T01:16:01.189Z,5.60
2022-08-07T01:18:34.914Z,5.90
2022-08-07T01:21:22.748Z,4.00
2022-08-07T01:23:55.351Z,5.10
2022-08-07T01:26:26.088Z,5.30
2022-08-07T01:28:55.162Z,5.80
2022-08-07T01:31:30.025Z,5.00
2022-08-07T01:34:10.499Z,3.90
2022-08-07T01:36:40.426Z,4.30
2022-08-07T01:39:10.255Z,5.50
2022-08-07T01:42:07.359Z,4.30
2022-08-07T01:44:28.768Z,4.20
2022-08-07T01:46:57.587Z,4.00
2022-08-07T01:49:29.134Z,7.10
2022-08-07T01:52:04.921Z,6.40
2022-08-07T01:54:37.590Z,12.80
2022-08-07T01:57:26.671Z,6.50
2022-08-07T02:00:12.960Z,3.90
2022-08-07T02:03:18.136Z,4.50
2022-08-07T02:05:59.982Z,5.70
2022-08-07T02:08:31.032Z,5.10
2022-08-07T02:11:00.922Z,5.80
2022-08-07T02:13:56.766Z,4.80
2022-08-07T02:16:28.783Z,4.40
2022-08-07T02:19:05.534Z,5.30
2022-08-07T02:21:58.726Z,5.50
2022-08-07T02:24:30.050Z,9.10
2022-08-07T02:27:02.447Z,4.60
2022-08-07T02:29:32.455Z,3.50
2022-08-07T02:32:04.388Z,5.30
2022-08-07T02:34:34.311Z,5.70
2022-08-07T02:37:08.728Z,8.40
2022-08-07T02:39:43.719Z,4.00
2022-08-07T02:42:30.568Z,6.60
2022-08-07T02:45:07.208Z,6.10
2022-08-07T02:47:49.084Z,6.20
2022-08-07T02:50:17.619Z,3.50
2022-08-07T02:53:06.528Z,3.80
2022-08-07T02:56:03.371Z,4.50
2022-08-07T02:58:33.946Z,3.70
2022-08-07T03:01:03.537Z,3.90
2022-08-07T03:03:49.540Z,4.80
2022-08-07T03:06:32.075Z,6.70
2022-08-07T03:09:03.086Z,4.40
2022-08-07T03:11:38.697Z,6.00
2022-08-07T03:14:07.670Z,3.20
2022-08-07T03:16:36.062Z,3.80
2022-08-07T03:19:06.799Z,7.10
2022-08-07T03:21:37.311Z,5.60
2022-08-07T03:24:20.465Z,4.30
2022-08-07T03:26:58.977Z,5.10
2022-08-07T03:29:37.774Z,4.50
2022-08-07T03:32:13.435Z,9.80
2022-08-07T03:34:47.419Z,4.60
2022-08-07T03:37:45.874Z,2.90
2022-08-07T03:40:16.894Z,6.70
2022-08-07T03:42:45.377Z,5.20
2022-08-07T03:45:30.031Z,3.10
2022-08-07T03:47:59.818Z,9.30
2022-08-07T03:50:28.984Z,3.30
2022-08-07T03:53:01.452Z,5.10
2022-08-07T03:55:52.919Z,4.40
2022-08-07T03:59:05.452Z,4.20
2022-08-07T04:01:13.892Z,8.00
2022-08-07T04:03:49.766Z,2.80
2022-08-07T04:06:36.254Z,4.30
2022-08-07T04:09:08.462Z,4.10
2022-08-07T04:12:25.107Z,5.50
2022-08-07T04:14:43.950Z,3.30
2022-08-07T04:17:19.928Z,3.10
2022-08-07T04:19:53.990Z,4.50
2022-08-07T04:22:28.995Z,6.50
2022-08-07T04:25:01.198Z,7.80
2022-08-07T04:27:35.420Z,5.00
2022-08-07T04:30:11.722Z,3.90
2022-08-07T04:32:44.766Z,5.00
2022-08-07T04:35:15.937Z,5.30
2022-08-07T04:38:02.850Z,6.20
2022-08-07T04:40:32.301Z,5.70
2022-08-07T04:43:01.856Z,5.00
2022-08-07T04:46:01.064Z,6.30
2022-08-07T04:48:51.035Z,6.10
2022-08-07T04:51:28.813Z,8.50
2022-08-07T04:54:08.497Z,8.80
2022-08-07T04:58:16.043Z,7.10
2022-08-07T05:00:13.130Z,4.50
2022-08-07T05:03:17.081Z,5.20
2022-08-07T05:06:19.699Z,9.00
2022-08-07T05:09:17.069Z,6.40
2022-08-07T05:12:10.493Z,6.60
2022-08-07T05:14:54.301Z,8.80
2022-08-07T05:17:52.968Z,7.10
2022-08-07T05:20:26.914Z,6.50
2022-08-07T05:23:00.256Z,6.40
2022-08-07T05:25:54.452Z,6.50
2022-08-07T05:28:23.356Z,8.90
2022-08-07T05:30:57.137Z,8.00
2022-08-07T05:33:27.665Z,11.50
2022-08-07T05:35:56.901Z,10.10
2022-08-07T05:38:59.849Z,9.20
2022-08-07T05:41:16.817Z,18.50
2022-08-07T05:44:12.268Z,18.60
2022-08-07T05:46:38.534Z,20.10
2022-08-07T05:49:13.080Z,21.80
2022-08-07T05:51:46.248Z,16.10
2022-08-07T05:54:30.785Z,17.30
2022-08-07T05:57:06.896Z,16.00
2022-08-07T05:59:58.073Z,13.70
2022-08-07T06:02:30.682Z,11.00
2022-08-07T06:05:15.449Z,11.70
2022-08-07T06:08:09.094Z,12.30
2022-08-07T06:10:42.594Z,9.20
2022-08-07T06:13:13.571Z,7.30
2022-08-07T06:15:45.746Z,8.10
2022-08-07T06:18:18.880Z,6.00
2022-08-07T06:20:50.496Z,6.00
2022-08-07T06:24:36.858Z,3.80
2022-08-07T06:26:27.427Z,6.00
2022-08-07T06:29:06.538Z,5.20
2022-08-07T06:31:46.580Z,6.90
2022-08-07T06:34:20.430Z,3.50
2022-08-07T06:36:51.824Z,5.80
2022-08-07T06:40:17.601Z,6.70
2022-08-07T06:42:34.836Z,4.00
2022-08-07T06:45:07.361Z,3.20
2022-08-07T06:47:57.049Z,6.10
2022-08-07T06:50:26.763Z,4.50
2022-08-07T06:52:56.760Z,3.30
2022-08-07T06:55:53.432Z,5.20
2022-08-07T06:58:21.309Z,5.30
2022-08-07T07:00:52.982Z,3.40
2022-08-07T07:03:39.633Z,7.90
2022-08-07T07:06:11.415Z,6.70
2022-08-07T07:08:39.863Z,8.20
2022-08-07T07:12:07.646Z,4.90
2022-08-07T07:14:04.208Z,5.60
2022-08-07T07:16:49.615Z,5.30
2022-08-07T07:19:55.948Z,3.00
2022-08-07T07:22:39.754Z,4.40
2022-08-07T07:26:33.920Z,2.20
2022-08-07T07:28:29.696Z,4.00
2022-08-07T07:31:17.338Z,4.70
2022-08-07T07:33:57.238Z,6.10
2022-08-07T07:36:34.288Z,3.60
2022-08-07T07:39:04.911Z,3.20
2022-08-07T07:42:02.136Z,3.20
2022-08-07T07:44:26.495Z,3.60
2022-08-07T07:47:01.234Z,3.60
2022-08-07T07:50:35.973Z,3.10
2022-08-07T07:52:31.586Z,5.10
2022-08-07T07:55:01.131Z,4.60
2022-08-07T07:57:52.133Z,3.00
2022-08-07T08:00:29.629Z,6.40
2022-08-07T08:03:08.696Z,3.20
2022-08-07T08:05:42.899Z,3.80
2022-08-07T08:08:37.017Z,4.40
2022-08-07T08:11:16.256Z,2.80
2022-08-07T08:13:57.808Z,5.30
2022-08-07T08:16:39.775Z,3.20
2022-08-07T08:19:17.613Z,2.10
2022-08-07T08:22:20.184Z,3.50
2022-08-07T08:25:24.808Z,2.70
2022-08-07T08:28:05.947Z,4.50
2022-08-07T08:30:37.461Z,1.70
2022-08-07T08:33:20.656Z,2.60
2022-08-07T08:36:12.817Z,3.00
2022-08-07T08:38:49.941Z,2.50
2022-08-07T08:41:31.559Z,3.00
2022-08-07T08:44:48.299Z,3.60
2022-08-07T08:47:57.576Z,3.60
2022-08-07T08:50:40.550Z,2.20
2022-08-07T08:53:26.554Z,3.40
2022-08-07T08:56:29.042Z,2.90
2022-08-07T08:59:12.717Z,1.90
2022-08-07T09:01:59.772Z,1.50
2022-08-07T09:05:14.666Z,1.80
2022-08-07T09:07:58.210Z,4.50
2022-08-07T09:11:03.425Z,4.00
2022-08-07T09:13:59.242Z,5.10
2022-08-07T09:16:47.600Z,4.00
2022-08-07T09:19:51.441Z,2.70
2022-08-07T09:24:30.995Z,1.10
2022-08-07T09:25:53.423Z,3.20
2022-08-07T09:30:05.931Z,4.70
2022-08-07T09:31:49.431Z,3.80
2022-08-07T09:34:27.250Z,2.30
2022-08-07T09:37:07.619Z,2.40
2022-08-07T09:39:54.533Z,2.10
2022-08-07T09:42:51.328Z,3.40
2022-08-07T09:47:51.765Z,2.40
2022-08-07T09:50:01.160Z,2.30
2022-08-07T09:52:53.994Z,2.20
2022-08-07T09:56:03.913Z,3.60
2022-08-07T09:59:07.630Z,2.30
2022-08-07T10:02:05.646Z,3.30
2022-08-07T10:05:12.586Z,5.80
2022-08-07T10:08:10.378Z,2.80
2022-08-07T10:11:17.177Z,2.50
2022-08-07T10:14:22.720Z,4.60
2022-08-07T10:17:13.419Z,1.70
2022-08-07T10:20:37.165Z,1.50
2022-08-07T10:24:05.311Z,1.60
2022-08-07T10:26:53.482Z,1.60
2022-08-07T10:29:45.887Z,2.60
2022-08-07T10:32:52.463Z,3.40
2022-08-07T10:35:55.673Z,2.00
2022-08-07T10:38:36.169Z,4.00
2022-08-07T10:42:00.369Z,1.70
2022-08-07T10:44:50.099Z,2.80
2022-08-07T10:47:52.854Z,3.00
2022-08-07T10:50:58.460Z,1.00
2022-08-07T10:54:14.848Z,2.30
2022-08-07T10:57:03.583Z,3.00
2022-08-07T11:00:55.894Z,4.60
2022-08-07T11:03:52.550Z,2.20
2022-08-07T11:06:41.920Z,3.60
2022-08-07T11:10:09.563Z,4.60
2022-08-07T11:12:45.497Z,2.30
2022-08-07T11:15:26.278Z,4.10
2022-08-07T11:18:27.576Z,4.40
2022-08-07T11:24:15.100Z,2.10
2022-08-07T11:27:01.783Z,1.10
2022-08-07T11:29:42.943Z,1.60
2022-08-07T11:32:25.648Z,3.10
2022-08-07T11:34:58.727Z,1.80
2022-08-07T11:37:38.710Z,2.30
2022-08-07T11:40:51.729Z,1.70
2022-08-07T11:44:10.779Z,3.00
2022-08-07T11:47:12.662Z,2.20
2022-08-07T11:50:32.704Z,2.90
2022-08-07T11:53:27.869Z,1.30
2022-08-07T11:57:02.056Z,1.80
2022-08-07T12:00:11.373Z,2.50
2022-08-07T12:03:41.482Z,2.80
2022-08-07T12:07:01.042Z,3.00
2022-08-07T12:10:17.153Z,1.90
2022-08-07T12:13:11.562Z,2.60
2022-08-07T12:16:06.249Z,2.60
2022-08-07T12:19:14.629Z,1.20
2022-08-07T12:22:39.593Z,2.90
2022-08-07T12:26:03.106Z,1.00
2022-08-07T12:29:01.669Z,2.10
2022-08-07T12:32:15.250Z,1.80
2022-08-07T12:35:36.323Z,1.70
2022-08-07T12:38:57.503Z,1.80
2022-08-07T12:42:16.355Z,1.00
2022-08-07T12:45:04.472Z,2.40
2022-08-07T12:48:27.717Z,3.70
2022-08-07T12:52:12.035Z,2.00
2022-08-07T12:55:16.443Z,1.30
2022-08-07T12:58:01.349Z,2.40
2022-08-07T13:01:18.959Z,2.30
2022-08-07T13:07:02.260Z,0.70
2022-08-07T13:10:28.564Z,1.90
2022-08-07T13:13:51.115Z,0.70
2022-08-07T13:17:07.729Z,1.20
2022-08-07T13:20:30.953Z,1.40
2022-08-07T13:24:02.052Z,2.30
2022-08-07T13:26:16.060Z,1.40
2022-08-07T13:29:15.197Z,2.70
2022-08-07T13:31:57.570Z,1.40
2022-08-07T13:34:53.057Z,1.80
2022-08-07T13:37:59.173Z,1.90
2022-08-07T13:40:49.555Z,3.40
2022-08-07T13:43:57.528Z,1.20
2022-08-07T13:46:48.868Z,0.90
2022-08-07T13:50:34.309Z,4.10
2022-08-07T13:52:32.271Z,1.50
2022-08-07T13:55:10.769Z,1.70
2022-08-07T13:57:59.125Z,1.50
2022-08-07T14:00:50.441Z,6.50
2022-08-07T14:04:07.311Z,2.50
2022-08-07T14:06:23.093Z,3.00
2022-08-07T14:10:00.482Z,3.00
2022-08-07T14:12:10.334Z,2.00
2022-08-07T14:14:44.161Z,2.90
2022-08-07T14:18:13.062Z,2.40
2022-08-07T14:20:43.382Z,3.70
2022-08-07T14:23:31.498Z,2.30
2022-08-07T14:26:30.621Z,2.30
2022-08-07T14:30:05.011Z,3.50
2022-08-07T14:32:28.193Z,3.40
2022-08-07T14:35:07.026Z,3.00
2022-08-07T14:37:39.969Z,3.30
2022-08-07T14:40:26.251Z,3.00
2022-08-07T14:46:12.452Z,2.10
2022-08-07T14:48:48.471Z,4.90
2022-08-07T14:52:03.690Z,5.70
2022-08-07T14:57:55.227Z,3.00
2022-08-07T15:00:30.288Z,1.90
2022-08-07T15:05:55.214Z,1.40
2022-08-07T15:08:47.550Z,5.20
2022-08-07T15:12:01.242Z,3.30
2022-08-07T15:14:36.064Z,1.60
2022-08-07T15:17:54.974Z,1.40
2022-08-07T15:21:44.151Z,1.20
2022-08-07T15:25:17.639Z,1.50
2022-08-07T15:28:34.412Z,1.70
2022-08-07T15:34:18.600Z,4.60
2022-08-07T15:37:04.055Z,1.70
2022-08-07T15:39:57.438Z,2.10
2022-08-07T15:45:57.321Z,2.80
2022-08-07T15:49:03.464Z,2.30
2022-08-07T15:54:47.596Z,2.30
2022-08-07T15:57:39.906Z,4.80
2022-08-07T16:01:20.156Z,1.10
2022-08-07T16:04:34.971Z,3.10
2022-08-07T16:08:33.055Z,2.90
2022-08-07T16:11:55.174Z,2.20
2022-08-07T16:15:58.202Z,1.40
2022-08-07T16:19:16.732Z,1.00
2022-08-07T16:22:05.070Z,1.90
2022-08-07T16:25:23.431Z,2.70
2022-08-07T16:32:34.605Z,3.00
2022-08-07T16:35:58.387Z,2.00
2022-08-07T16:39:49.165Z,2.30
2022-08-07T16:44:04.056Z,1.90
2022-08-07T16:47:38.682Z,2.00
2022-08-07T16:52:01.722Z,3.50
2022-08-07T16:55:13.289Z,2.70
2022-08-07T16:59:10.198Z,2.40
2022-08-07T17:02:52.894Z,3.90
2022-08-07T17:06:29.849Z,2.30
2022-08-07T17:10:32.791Z,2.10
2022-08-07T17:14:19.218Z,3.50
2022-08-07T17:17:46.192Z,1.80
2022-08-07T17:28:38.789Z,2.40
2022-08-07T17:32:52.420Z,2.90
2022-08-07T17:46:35.204Z,3.90
2022-08-07T17:50:16.487Z,5.30
2022-08-07T17:54:00.188Z,7.30
2022-08-07T18:12:06.990Z,7.90
2022-08-07T18:15:53.903Z,8.40
2022-08-07T18:38:53.718Z,3.60
2022-08-07T18:41:16.933Z,3.00
2022-08-07T18:45:40.171Z,4.60
2022-08-07T18:50:05.547Z,3.90
2022-08-07T18:52:52.772Z,3.50
2022-08-07T18:56:32.167Z,4.80
2022-08-07T18:59:59.528Z,8.10
2022-08-07T19:03:44.904Z,5.10
2022-08-07T19:07:34.553Z,4.60
2022-08-07T19:11:35.703Z,3.60
2022-08-07T19:16:02.327Z,4.00
2022-08-07T19:19:00.890Z,4.40
2022-08-07T19:22:32.317Z,2.90
2022-08-07T19:26:22.967Z,7.60
2022-08-07T19:31:06.375Z,3.90
2022-08-07T19:33:19.314Z,4.20
2022-08-07T19:37:17.067Z,6.50
2022-08-07T19:40:49.309Z,3.30
2022-08-07T19:54:56.176Z,6.30
2022-08-07T19:58:13.378Z,7.30
2022-08-07T20:01:11.368Z,6.60
2022-08-07T20:04:31.569Z,7.10
2022-08-07T20:08:06.329Z,7.50
2022-08-07T20:12:23.426Z,6.70
2022-08-07T20:15:00.529Z,6.50
2022-08-07T20:18:14.787Z,4.60
2022-08-07T20:21:29.199Z,9.40
2022-08-07T20:25:03.581Z,7.10
2022-08-07T20:28:34.972Z,5.40
2022-08-07T20:32:11.483Z,7.40
2022-08-07T20:36:03.107Z,6.70
2022-08-07T20:49:58.080Z,7.30
2022-08-07T20:53:12.004Z,6.50
2022-08-07T21:37:23.583Z,9.00
2022-08-07T21:40:51.169Z,10.40
2022-08-07T21:44:28.447Z,12.00
2022-08-07T21:47:50.310Z,11.70
2022-08-07T21:51:08.356Z,14.60
2022-08-07T21:54:34.778Z,11.30
2022-08-07T21:57:59.696Z,10.80
2022-08-07T22:00:59.722Z,10.70
2022-08-07T22:04:06.542Z,10.60
2022-08-07T22:07:57.947Z,12.80
2022-08-07T22:11:02.606Z,9.50
2022-08-07T22:13:58.608Z,11.60
2022-08-07T22:17:13.198Z,12.80
2022-08-07T22:20:27.849Z,13.20
2022-08-07T22:23:41.642Z,12.20
2022-08-07T22:26:50.517Z,10.50
2022-08-07T22:30:12.648Z,13.10
2022-08-07T22:33:12.058Z,14.00
2022-08-07T22:36:46.306Z,13.50
2022-08-07T22:40:22.514Z,12.70
2022-08-07T22:43:14.167Z,12.40
2022-08-07T22:47:02.507Z,12.20
2022-08-07T22:49:55.283Z,12.60
2022-08-07T22:52:54.018Z,12.70
2022-08-07T22:55:47.717Z,10.90
2022-08-07T22:58:43.094Z,10.30
2022-08-07T23:01:59.023Z,11.90
2022-08-07T23:06:09.870Z,10.30
2022-08-07T23:08:45.829Z,11.80
2022-08-07T23:12:06.265Z,11.80
2022-08-07T23:16:05.738Z,11.80
2022-08-07T23:19:48.011Z,13.00
2022-08-07T23:23:15.026Z,9.90
2022-08-07T23:26:33.515Z,9.50
2022-08-07T23:29:44.018Z,11.70
2022-08-07T23:34:33.968Z,11.60
2022-08-07T23:39:48.227Z,11.20
2022-08-07T23:43:07.641Z,11.50
2022-08-07T23:46:03.230Z,10.60
2022-08-07T23:49:05.940Z,11.80
2022-08-07T23:53:02.156Z,12.50
2022-08-07T23:55:01.567Z,11.10
2022-08-07T23:58:04.341Z,11.70
